KNIP/NIP METAR and TAF weather

Enter ICAO airport designator
Station Type Date Time Source
KNIP METAR 2019/06/20 07:53 UTC NOAA

KNIP 200753Z 20007KT 10SM OVC010 26/23 A2992 RMK AO2 SLP126 T02560233 $


Station Type Date Time Source
KNIP Decoded METAR 2019/06/20 07:53 UTC NOAA

JACKSONVILLE NAVAL AIR STN, FL, United States (KNIP) 30-14N 81-40W 8M
Jun 20, 2019 - 03:53 AM EDT / 2019.06.20 0753 UTC
Wind: from the SSW (200 degrees) at 8 MPH (7 KT):0
Visibility: 10 mile(s):0
Sky conditions: overcast
Temperature: 78.1 F (25.6 C)
Dew Point: 73.9 F (23.3 C)
Relative Humidity: 87%
Pressure (altimeter): 29.92 in. Hg (1013 hPa)
ob: KNIP 200753Z 20007KT 10SM OVC010 26/23 A2992 RMK AO2 SLP126 T02560233
cycle: 8

Station Type Date Time Source
KNIP TAF 2019/06/20 07:15 UTC NOAA

TAF KNIP 2007/2107 21009KT 9999 SCT008 SCT030 BKN200 QNH2986INS
TEMPO 2007/2011 BKN008 BKN030
BECMG 2010/2011 22012KT 9999 VCSH SCT015 BKN250 QNH2984INS
BECMG 2014/2015 24015G24KT 9999 VCTS SCT030CB BKN250 QNH2987INS
TEMPO 2016/2022 VRB20G30KT 1600 +TSRA BR SCT010 BKN020CB BKN080 BKN250
BECMG 2023/2101 22015G20KT 9999 NSW FEW025 SCT250 QNH2988INS T24/2012Z T35/2020Z FN00213

Example: see airport list